Santo Domingo, Dominican Republic

5:08 PM AST en Abril 24, 2017 (GMT -0400)
Las Americas International | | Change Station

Alt 59 ft 18.43 °N, 69.67 °W | Updated 8 minutes ago

Light Rain
Lluvia débil
82 ° F
Sensación térmica 92 ° F
N
10
Viento Variable Viento desde SE

Hoy
Alta -- | Baja -- ° F
--% Posibilidad de precipitaciones
Ayer
Alta -- | Baja -- ° F
Precip. -- pul
Presión 29.80 pul
Visibilidad 4.3 Millas
Nubes Baja 1400 ft
Muy nublado 1400 ft
Nublado 7000 ft
Índice de calor 92 ° F
Punto de rocío 79 ° F
Humedad 89%
Precipitaciones 0.00 pul
Espesor de la nieve No disponible.
6:15 AM 6:58 PM
Creciente menguante, 4% visible
METAR MDSD 242100Z 13009KT 7000 -RA FEW014CB BKN014 OVC070 28/26 Q1009 CB/NE/E/SE/N
Presión 29.80 pul
Visibilidad 4.3 Millas
Nubes Baja 1400 ft
Muy nublado 1400 ft
Nublado 7000 ft
Índice de calor 92 ° F
Punto de rocío 79 ° F
Humedad 89%
Precipitaciones 0.00 pul
Espesor de la nieve No disponible.
6:15 AM 6:58 PM
Creciente menguante, 4% visible
METAR MDSD 242100Z 13009KT 7000 -RA FEW014CB BKN014 OVC070 28/26 Q1009 CB/NE/E/SE/N

Get Severe Weather Alerts

Thanks for signing up!

Be on the lookout for a verification email in your inbox.

You'll start receiving the daily forecast at 8 AM.

×

10-Day Weather Forecast

No radar image for this location.
×

Almanac

Astronomía

Apr. 24, 2017 Salida Puesta
Hora real
Crepúsculo civil
Crepúsculo náutico
Crepúsculo astronómico
Luna
Horas de luz
Horas de luz
Tomorrow will be .
, % of the Moon is Illuminated

Extremos de hoy

Máximos del país Bajas del país

Community

WunderPhotos

WunderBlog® & News

Nearby

Calidad del aire

  Calidad del aire Índice AQ Contaminante
Not available.

Grosos de nieve

Estación Profundido Altura

Actividad de terremotos

Ciudad Distance Mag. Tiempo y dato
Magnitud mínima muestra es 2,5.

Temperaturas de aguas costeras

Lugar Temperatura

Stations

Estaciones meteorológicas cercanas

Ubicación de la estación Temp. Vientos helados Punto de rocío Humedad Viento Precip. Alt Actualizado Tipo